Time;durP1;ratioP1;P1;durP2;ratioP2;P2;SDS_P1;SDS_P2;PMS_P1;PMS_P2;Temp;Humidity;BMP_temperature;BMP_pressure;BME280_temperature;BME280_humidity;BME280_pressure;Samples;Min_cycle;Max_cycle;Signal;HPM_P1;HPM_P2
2022/08/25 00:06:44;;;;;;;2.17;1.83;;;30.60;42.10;;;;;;20785250;28;20120;-76
2022/08/25 00:16:45;;;;;;;2.60;1.90;;;30.60;42.10;;;;;;20795285;28;20538;-77
2022/08/25 00:26:47;;;;;;;2.30;1.70;;;30.60;42.20;;;;;;20789394;28;20056;-77
2022/08/25 00:36:49;;;;;;;2.47;1.63;;;30.50;42.20;;;;;;20788389;28;20029;-77
2022/08/25 00:46:55;;;;;;;2.08;1.50;;;30.50;42.30;;;;;;20829354;28;20044;-76
2022/08/25 00:56:57;;;;;;;1.90;1.70;;;30.50;42.40;;;;;;20782759;28;20040;-77
2022/08/25 01:06:57;;;;;;;4.40;2.13;;;30.50;42.40;;;;;;20784079;28;20037;-76
2022/08/25 01:27:22;;;;;;;2.65;2.17;;;30.40;42.40;;;;;;20644127;23;20047;-77
2022/08/25 01:37:23;;;;;;;2.60;2.20;;;30.40;42.40;;;;;;20562779;28;20045;-77
2022/08/25 01:47:23;;;;;;;2.45;1.90;;;30.40;42.50;;;;;;20551707;28;20034;-76
2022/08/25 01:57:24;;;;;;;2.63;1.98;;;30.40;42.50;;;;;;20538779;28;20060;-76
2022/08/25 02:07:24;;;;;;;4.05;2.42;;;30.40;42.60;;;;;;20507367;28;20039;-76
2022/08/25 02:17:25;;;;;;;3.38;2.40;;;30.40;42.60;;;;;;20514516;28;20517;-76
2022/08/25 02:27:25;;;;;;;3.10;2.20;;;30.40;42.60;;;;;;20557017;28;20567;-76
2022/08/25 02:37:26;;;;;;;3.97;2.47;;;30.40;42.70;;;;;;20523845;28;20147;-76
2022/08/25 02:47:27;;;;;;;2.60;2.35;;;30.40;42.70;;;;;;20562597;28;20070;-77
2022/08/25 02:57:28;;;;;;;3.42;2.75;;;30.30;42.70;;;;;;20526422;28;20129;-77
2022/08/25 03:07:29;;;;;;;3.17;2.55;;;30.30;42.70;;;;;;20522634;28;20460;-76
2022/08/25 03:17:29;;;;;;;3.80;2.20;;;30.30;42.80;;;;;;20583773;28;20046;-76
2022/08/25 03:27:31;;;;;;;3.17;2.20;;;30.30;42.80;;;;;;20547609;28;20477;-76
2022/08/25 03:37:32;;;;;;;3.63;2.35;;;30.30;42.80;;;;;;20563580;28;20034;-77
2022/08/25 03:47:33;;;;;;;3.67;2.67;;;30.30;42.80;;;;;;20555883;28;20359;-76
2022/08/25 03:57:33;;;;;;;3.17;2.42;;;30.30;42.90;;;;;;20540121;28;20062;-76
2022/08/25 04:07:34;;;;;;;3.90;2.88;;;30.30;42.90;;;;;;20539102;28;20105;-76
2022/08/25 04:17:38;;;;;;;4.35;3.10;;;30.30;42.90;;;;;;20539060;28;20027;-84
2022/08/25 04:27:39;;;;;;;2.88;2.30;;;30.30;42.90;;;;;;20541877;28;20035;-83
2022/08/25 04:37:39;;;;;;;3.58;2.65;;;30.30;42.90;;;;;;20526462;28;20043;-80
2022/08/25 04:47:40;;;;;;;3.40;2.70;;;30.30;42.90;;;;;;20528224;28;20121;-81
2022/08/25 04:57:40;;;;;;;5.43;3.40;;;30.20;42.90;;;;;;20541569;28;20067;-83
2022/08/25 05:07:41;;;;;;;3.67;2.85;;;30.10;43.80;;;;;;20569293;28;20053;-83
2022/08/25 05:17:42;;;;;;;4.32;3.08;;;30.20;43.80;;;;;;20545808;28;20438;-85
2022/08/25 05:27:42;;;;;;;5.63;3.88;;;30.30;43.80;;;;;;20571691;28;20034;-85
2022/08/25 05:37:43;;;;;;;5.45;2.88;;;30.30;43.70;;;;;;20556019;28;20050;-84
2022/08/25 05:47:44;;;;;;;3.17;2.67;;;30.30;43.60;;;;;;20515564;28;20038;-82
2022/08/25 05:57:44;;;;;;;4.82;3.08;;;30.30;43.60;;;;;;20517948;28;20149;-78
2022/08/25 06:07:46;;;;;;;4.33;2.73;;;30.40;43.70;;;;;;20556263;28;20093;-77
2022/08/25 06:17:47;;;;;;;2.70;2.22;;;30.30;43.70;;;;;;20552679;28;20290;-75
2022/08/25 06:27:49;;;;;;;4.53;2.17;;;30.30;43.70;;;;;;20544539;28;20042;-79
2022/08/25 06:37:49;;;;;;;2.65;1.98;;;30.30;43.70;;;;;;20553075;28;20038;-83
2022/08/25 06:47:51;;;;;;;3.97;2.60;;;30.30;43.90;;;;;;20595881;28;20114;-80
2022/08/25 06:57:53;;;;;;;2.70;1.90;;;30.30;44.00;;;;;;20578297;28;20041;-82
2022/08/25 07:07:53;;;;;;;2.83;2.25;;;30.30;44.10;;;;;;20554108;28;20054;-82
2022/08/25 07:17:54;;;;;;;3.25;2.28;;;30.20;44.20;;;;;;20569714;28;20054;-82
2022/08/25 07:27:54;;;;;;;3.72;2.63;;;30.20;44.20;;;;;;20595241;28;20043;-82
2022/08/25 07:37:55;;;;;;;3.50;2.03;;;30.30;44.30;;;;;;20552375;28;20118;-81
2022/08/25 07:48:07;;;;;;;4.15;2.45;;;30.20;44.40;;;;;;20566281;28;20842;-83
2022/08/25 07:58:09;;;;;;;4.35;2.50;;;30.30;44.60;;;;;;20562728;28;20392;-82
2022/08/25 08:08:11;;;;;;;6.30;2.28;;;30.20;44.70;;;;;;20537576;28;20446;-81
2022/08/25 08:18:12;;;;;;;4.53;2.40;;;30.30;45.00;;;;;;20545657;28;20058;-82
2022/08/25 08:28:13;;;;;;;3.17;2.20;;;30.30;45.10;;;;;;20575899;28;20039;-82
2022/08/25 08:38:14;;;;;;;3.17;2.60;;;30.20;45.10;;;;;;20589865;28;20070;-86
2022/08/25 08:48:39;;;;;;;4.85;2.22;;;30.20;45.20;;;;;;20576396;28;20402;-85
2022/08/25 08:58:43;;;;;;;5.10;2.75;;;30.20;45.30;;;;;;20555396;28;20042;-76
2022/08/25 09:08:44;;;;;;;5.20;2.58;;;30.20;45.60;;;;;;20553839;28;20032;-76
2022/08/25 09:19:07;;;;;;;3.07;2.50;;;30.10;45.70;;;;;;20531179;28;20044;-75
2022/08/25 09:29:15;;;;;;;4.47;3.10;;;30.10;45.80;;;;;;20541167;28;20298;-75
2022/08/25 09:39:15;;;;;;;4.82;3.15;;;30.00;46.10;;;;;;20545019;28;20035;-74
2022/08/25 09:49:17;;;;;;;4.70;3.25;;;30.00;46.40;;;;;;20545370;28;20089;-75
2022/08/25 09:59:26;;;;;;;4.93;3.25;;;30.00;46.60;;;;;;20535085;28;20039;-76
2022/08/25 10:09:37;;;;;;;3.10;2.75;;;30.00;46.90;;;;;;20554566;28;20563;-84
2022/08/25 10:19:37;;;;;;;4.13;3.15;;;30.00;46.80;;;;;;20566715;28;21291;-82
2022/08/25 10:29:55;;;;;;;3.67;3.03;;;30.00;46.80;;;;;;20530450;28;20035;-83
2022/08/25 10:40:31;;;;;;;5.15;3.67;;;30.10;46.70;;;;;;20549819;28;20039;-77
2022/08/25 10:50:47;;;;;;;3.83;2.58;;;30.10;47.00;;;;;;20555261;28;20054;-77
2022/08/25 11:01:02;;;;;;;5.35;3.13;;;30.20;46.80;;;;;;20545226;28;20031;-75
2022/08/25 11:11:24;;;;;;;4.35;3.10;;;30.20;46.80;;;;;;20522287;28;20038;-76
2022/08/25 11:21:31;;;;;;;5.78;3.67;;;30.20;47.10;;;;;;20560225;28;20378;-77
2022/08/25 11:31:40;;;;;;;5.78;3.35;;;30.30;47.40;;;;;;20546552;28;20038;-79
2022/08/25 11:42:03;;;;;;;3.42;2.83;;;30.20;47.30;;;;;;20562868;28;20473;-80
2022/08/25 11:52:05;;;;;;;6.28;3.80;;;29.90;48.40;;;;;;20566618;28;20051;-79
2022/08/25 12:02:05;;;;;;;8.27;4.03;;;29.30;49.00;;;;;;20544661;28;20035;-82
2022/08/25 12:12:29;;;;;;;5.10;3.67;;;28.70;50.20;;;;;;20535283;28;20039;-83
2022/08/25 12:22:33;;;;;;;3.60;3.28;;;28.10;51.60;;;;;;20577576;28;20246;-88
2022/08/25 12:32:57;;;;;;;7.40;4.20;;;27.80;52.70;;;;;;20584277;28;20062;-81
2022/08/25 12:43:07;;;;;;;5.40;3.47;;;27.50;53.80;;;;;;20545507;28;20531;-82
2022/08/25 12:53:32;;;;;;;5.53;3.95;;;27.20;54.40;;;;;;20539949;28;20069;-81
2022/08/25 13:04:09;;;;;;;7.78;4.70;;;27.10;55.30;;;;;;20544607;28;20110;-82
2022/08/25 13:14:21;;;;;;;5.75;4.10;;;26.90;55.90;;;;;;20573949;28;20039;-83
2022/08/25 13:24:33;;;;;;;5.25;4.20;;;26.70;56.10;;;;;;20563391;28;20393;-82
2022/08/25 13:34:38;;;;;;;5.68;4.18;;;26.70;56.60;;;;;;20541803;28;20046;-81
2022/08/25 13:44:38;;;;;;;6.65;4.22;;;26.70;57.00;;;;;;20520914;28;20466;-79
2022/08/25 13:54:42;;;;;;;5.83;4.20;;;26.50;57.10;;;;;;20527348;28;20067;-79
2022/08/25 14:04:47;;;;;;;7.15;4.50;;;26.50;57.20;;;;;;20567685;28;20785;-78
2022/08/25 14:14:57;;;;;;;5.13;3.72;;;26.50;57.20;;;;;;20552353;28;20054;-80
2022/08/25 14:24:57;;;;;;;7.03;3.70;;;26.50;57.30;;;;;;20559440;28;20039;-77
2022/08/25 14:34:58;;;;;;;5.25;3.83;;;26.50;57.40;;;;;;20556474;28;20460;-74
2022/08/25 14:44:58;;;;;;;11.23;4.23;;;26.50;57.30;;;;;;20576548;28;20474;-73
2022/08/25 14:54:59;;;;;;;4.50;3.53;;;26.50;57.20;;;;;;20538995;28;20301;-73
2022/08/25 15:05:04;;;;;;;5.18;3.00;;;26.50;57.00;;;;;;20544682;28;20303;-77
2022/08/25 15:15:05;;;;;;;6.05;3.28;;;26.60;56.90;;;;;;20536041;28;20046;-78
2022/08/25 15:25:06;;;;;;;4.22;3.55;;;26.60;56.80;;;;;;20538111;28;20039;-76
2022/08/25 15:35:07;;;;;;;4.13;3.05;;;26.60;56.70;;;;;;20576831;28;20058;-77
2022/08/25 15:45:08;;;;;;;5.45;3.17;;;26.60;56.60;;;;;;20531302;28;20122;-76
2022/08/25 15:55:09;;;;;;;10.98;4.47;;;26.70;56.60;;;;;;20537895;28;20039;-77
2022/08/25 16:05:10;;;;;;;8.75;4.07;;;26.70;56.70;;;;;;20549437;28;20413;-77
2022/08/25 16:15:11;;;;;;;6.93;4.00;;;26.70;56.90;;;;;;20556706;28;20031;-78
2022/08/25 16:25:12;;;;;;;6.68;3.70;;;26.70;57.00;;;;;;20549831;28;20311;-77
2022/08/25 16:35:13;;;;;;;4.43;3.65;;;26.60;57.60;;;;;;20556879;28;20026;-78
2022/08/25 16:45:13;;;;;;;5.80;4.00;;;26.60;56.80;;;;;;20518391;28;20539;-79
2022/08/25 16:55:14;;;;;;;4.20;3.38;;;26.60;56.80;;;;;;20560728;28;20038;-82
2022/08/25 17:05:15;;;;;;;6.65;3.85;;;26.60;56.80;;;;;;20512113;28;20038;-79
2022/08/25 17:15:21;;;;;;;4.07;3.10;;;26.50;56.80;;;;;;20552603;28;20658;-78
2022/08/25 17:25:23;;;;;;;3.60;3.00;;;26.50;56.90;;;;;;20583058;28;20097;-83
2022/08/25 17:35:24;;;;;;;4.82;3.60;;;26.50;57.00;;;;;;20537866;28;20046;-79
2022/08/25 17:45:25;;;;;;;5.72;4.25;;;26.40;57.00;;;;;;20562621;28;20498;-76
2022/08/25 17:55:27;;;;;;;6.40;3.22;;;26.30;57.10;;;;;;20557174;28;20438;-79
2022/08/25 18:05:27;;;;;;;5.53;3.87;;;26.30;57.20;;;;;;20536216;28;20085;-81
2022/08/25 18:15:28;;;;;;;5.47;3.27;;;26.30;57.30;;;;;;20566034;28;20478;-76
2022/08/25 18:25:29;;;;;;;4.72;3.05;;;26.20;57.40;;;;;;20546693;28;20302;-76
2022/08/25 18:35:29;;;;;;;4.50;3.40;;;26.20;57.40;;;;;;20548759;28;20476;-76
2022/08/25 18:45:32;;;;;;;4.30;3.30;;;26.10;57.40;;;;;;20568677;28;20033;-76
2022/08/25 18:55:34;;;;;;;4.10;2.97;;;26.10;57.40;;;;;;20502330;28;20034;-77
2022/08/25 19:05:36;;;;;;;4.03;2.58;;;26.10;57.40;;;;;;20538363;28;20375;-76
2022/08/25 19:15:38;;;;;;;4.88;3.33;;;26.10;57.40;;;;;;20541491;28;20122;-77
2022/08/25 19:25:39;;;;;;;3.88;2.97;;;26.00;57.40;;;;;;20581852;28;20050;-74
2022/08/25 19:35:44;;;;;;;3.53;3.22;;;26.00;57.40;;;;;;20534933;28;20379;-77
2022/08/25 19:45:44;;;;;;;3.97;2.80;;;26.00;57.40;;;;;;20557309;28;20047;-76
2022/08/25 19:55:45;;;;;;;4.25;2.90;;;25.90;57.40;;;;;;20539848;28;20389;-76
2022/08/25 20:05:46;;;;;;;4.50;2.95;;;25.90;57.50;;;;;;20538517;28;20034;-77
2022/08/25 20:15:47;;;;;;;5.40;3.30;;;25.90;57.50;;;;;;20561337;28;20050;-78
2022/08/25 20:25:48;;;;;;;3.92;2.75;;;25.90;58.20;;;;;;20555936;28;20043;-77
2022/08/25 20:35:48;;;;;;;3.30;3.00;;;25.90;57.60;;;;;;20527599;28;20043;-76
2022/08/25 20:45:58;;;;;;;4.55;3.03;;;25.80;57.50;;;;;;20533646;28;20505;-76
2022/08/25 20:55:58;;;;;;;3.70;3.03;;;25.80;57.50;;;;;;20506934;28;20049;-77
2022/08/25 21:05:59;;;;;;;4.15;2.75;;;25.80;57.50;;;;;;20562712;28;20472;-76
2022/08/25 21:16:03;;;;;;;3.30;2.70;;;25.80;57.50;;;;;;20522278;28;20071;-76
2022/08/25 21:26:04;;;;;;;3.80;2.85;;;25.70;57.50;;;;;;20533047;28;20521;-77
2022/08/25 21:36:09;;;;;;;3.22;2.63;;;25.70;57.50;;;;;;20548800;28;20035;-79
2022/08/25 21:46:12;;;;;;;3.22;2.53;;;25.70;57.50;;;;;;20522035;28;20039;-76
2022/08/25 21:56:14;;;;;;;4.30;2.95;;;25.70;57.60;;;;;;20558022;28;20039;-76
2022/08/25 22:06:15;;;;;;;4.22;3.03;;;25.70;57.60;;;;;;20544528;28;20478;-77
2022/08/25 22:16:18;;;;;;;4.50;2.85;;;25.70;57.60;;;;;;20560322;28;20038;-77
2022/08/25 22:26:19;;;;;;;4.95;3.17;;;25.70;57.70;;;;;;20533479;28;20478;-77
2022/08/25 22:36:25;;;;;;;3.83;3.22;;;25.60;57.70;;;;;;20526134;28;20038;-76
2022/08/25 22:46:26;;;;;;;4.50;3.25;;;25.60;57.70;;;;;;20549906;28;20038;-77
2022/08/25 22:56:30;;;;;;;3.72;3.30;;;25.70;57.90;;;;;;20544790;28;20041;-76
2022/08/25 23:06:33;;;;;;;4.07;3.05;;;25.60;57.90;;;;;;20575858;28;20035;-76
2022/08/25 23:16:33;;;;;;;2.90;2.55;;;25.60;57.90;;;;;;20540870;28;20031;-76
2022/08/25 23:26:35;;;;;;;3.33;2.38;;;25.60;58.00;;;;;;20556829;28;20039;-78
2022/08/25 23:36:35;;;;;;;3.58;2.95;;;25.60;58.00;;;;;;20557797;28;20035;-77
2022/08/25 23:46:36;;;;;;;4.63;3.15;;;25.50;58.00;;;;;;20557097;28;20493;-76
2022/08/25 23:56:37;;;;;;;3.70;3.17;;;25.50;58.00;;;;;;20534065;28;20031;-78
